createdAt,value
2023-05-14T00:00:04.156Z,14.82
2023-05-14T00:03:08.565Z,14.82
2023-05-14T00:06:13.211Z,14.84
2023-05-14T00:09:17.115Z,14.88
2023-05-14T00:12:21.099Z,14.93
2023-05-14T00:15:25.248Z,14.94
2023-05-14T00:18:29.509Z,14.89
2023-05-14T00:21:33.682Z,14.80
2023-05-14T00:24:37.693Z,14.82
2023-05-14T00:27:41.792Z,14.85
2023-05-14T00:30:45.931Z,14.86
2023-05-14T00:33:50.201Z,14.76
2023-05-14T00:36:54.240Z,14.72
2023-05-14T00:39:58.675Z,14.69
2023-05-14T00:43:03.678Z,14.67
2023-05-14T00:46:08.136Z,14.70
2023-05-14T00:49:12.282Z,14.83
2023-05-14T00:52:16.783Z,14.79
2023-05-14T00:55:21.603Z,14.72
2023-05-14T00:58:26.252Z,14.69
2023-05-14T01:01:31.154Z,14.70
2023-05-14T01:04:35.334Z,14.66
2023-05-14T01:07:49.270Z,14.69
2023-05-14T01:11:03.536Z,14.66
2023-05-14T01:14:36.020Z,14.65
2023-05-14T01:17:48.608Z,14.63
2023-05-14T01:20:53.993Z,14.65
2023-05-14T01:23:58.149Z,14.62
2023-05-14T01:27:23.382Z,14.62
2023-05-14T01:30:42.340Z,14.60
2023-05-14T01:33:49.147Z,14.63
2023-05-14T01:36:53.493Z,14.57
2023-05-14T01:40:00.201Z,14.46
2023-05-14T01:43:05.263Z,14.47
2023-05-14T01:46:09.702Z,14.41
2023-05-14T01:49:13.598Z,14.45
2023-05-14T01:52:20.879Z,14.44
2023-05-14T01:55:25.702Z,14.45
2023-05-14T01:58:29.701Z,14.52
2023-05-14T02:01:33.968Z,14.45
2023-05-14T02:04:37.954Z,14.44
2023-05-14T02:07:41.814Z,14.45
2023-05-14T02:10:45.756Z,14.45
2023-05-14T02:13:50.075Z,14.47
2023-05-14T02:16:54.302Z,14.54
2023-05-14T02:19:58.389Z,14.59
2023-05-14T02:23:02.322Z,14.56
2023-05-14T02:26:06.270Z,14.56
2023-05-14T02:29:10.494Z,14.58
2023-05-14T02:32:14.545Z,14.56
2023-05-14T02:35:18.302Z,14.61
2023-05-14T02:38:23.623Z,14.56
2023-05-14T02:41:27.896Z,14.51
2023-05-14T02:44:32.327Z,14.45
2023-05-14T02:47:37.985Z,14.43
2023-05-14T02:50:42.633Z,14.44
2023-05-14T02:53:46.897Z,14.41
2023-05-14T02:56:50.879Z,14.38
2023-05-14T02:59:55.084Z,14.35
2023-05-14T03:02:59.377Z,14.25
2023-05-14T03:06:04.733Z,14.21
2023-05-14T03:09:08.718Z,14.24
2023-05-14T03:12:14.281Z,14.19
2023-05-14T03:15:18.169Z,14.19
2023-05-14T03:18:22.797Z,14.13
2023-05-14T03:21:27.231Z,14.11
2023-05-14T03:24:31.513Z,14.13
2023-05-14T03:27:35.991Z,14.15
2023-05-14T03:30:39.872Z,14.15
2023-05-14T03:33:44.348Z,14.14
2023-05-14T03:36:48.566Z,14.09
2023-05-14T03:39:52.728Z,14.08
2023-05-14T03:42:57.084Z,14.09
2023-05-14T03:46:01.321Z,14.04
2023-05-14T03:49:06.794Z,14.04
2023-05-14T03:52:10.648Z,14.07
2023-05-14T03:55:14.428Z,14.10
2023-05-14T03:58:18.301Z,14.07
2023-05-14T04:01:22.537Z,14.06
2023-05-14T04:04:26.479Z,14.06
2023-05-14T04:07:30.759Z,14.10
2023-05-14T04:10:34.564Z,14.07
2023-05-14T04:13:38.778Z,14.07
2023-05-14T04:16:43.240Z,14.11
2023-05-14T04:19:46.936Z,14.15
2023-05-14T04:22:51.030Z,14.20
2023-05-14T04:25:55.060Z,14.20
2023-05-14T04:29:02.932Z,14.27
2023-05-14T04:32:07.743Z,14.28
2023-05-14T04:35:12.904Z,14.27
2023-05-14T04:38:17.216Z,14.20
2023-05-14T04:41:21.328Z,14.22
2023-05-14T04:44:26.199Z,14.27
2023-05-14T04:47:30.379Z,14.21
2023-05-14T04:50:35.058Z,14.31
2023-05-14T04:53:39.023Z,14.39
2023-05-14T04:56:43.444Z,14.52
2023-05-14T04:59:47.613Z,14.62
2023-05-14T05:02:51.628Z,14.62
2023-05-14T05:05:55.989Z,14.70
2023-05-14T05:09:01.987Z,14.84
2023-05-14T05:12:06.934Z,14.96
2023-05-14T05:15:11.080Z,15.13
2023-05-14T05:18:15.114Z,15.18
2023-05-14T05:21:19.399Z,15.20
2023-05-14T05:24:23.341Z,15.04
2023-05-14T05:27:27.529Z,15.07
2023-05-14T05:30:31.438Z,15.07
2023-05-14T05:33:35.977Z,15.18
2023-05-14T05:36:40.269Z,15.27
2023-05-14T05:39:44.128Z,15.13
2023-05-14T05:42:47.870Z,15.17
2023-05-14T05:45:51.589Z,15.29
2023-05-14T05:48:55.710Z,15.30
2023-05-14T05:51:59.868Z,15.28
2023-05-14T05:55:04.225Z,15.38
2023-05-14T05:58:08.158Z,15.49
2023-05-14T06:01:12.290Z,15.48
2023-05-14T06:04:16.509Z,15.50
2023-05-14T06:07:21.036Z,15.65
2023-05-14T06:10:24.851Z,15.83
2023-05-14T06:13:28.958Z,15.89
2023-05-14T06:16:33.536Z,15.99
2023-05-14T06:19:37.534Z,16.00
2023-05-14T06:22:41.378Z,16.25
2023-05-14T06:25:45.359Z,16.29
2023-05-14T06:28:49.539Z,16.35
2023-05-14T06:31:53.959Z,16.26
2023-05-14T06:34:58.574Z,16.36
2023-05-14T06:38:02.328Z,16.39
2023-05-14T06:41:06.554Z,16.56
2023-05-14T06:44:11.034Z,16.65
2023-05-14T06:47:15.514Z,16.64
2023-05-14T06:50:19.618Z,16.79
2023-05-14T06:53:23.471Z,16.79
2023-05-14T06:56:27.494Z,16.80
2023-05-14T06:59:31.684Z,17.03
2023-05-14T07:02:36.001Z,17.18
2023-05-14T07:05:41.273Z,17.30
2023-05-14T07:08:47.895Z,17.54
2023-05-14T07:11:51.697Z,17.72
2023-05-14T07:14:56.946Z,17.92
2023-05-14T07:18:01.195Z,17.97
2023-05-14T07:21:06.534Z,18.06
2023-05-14T07:24:10.272Z,18.17
2023-05-14T07:27:14.086Z,18.31
2023-05-14T07:30:17.945Z,18.12
2023-05-14T07:33:22.734Z,18.30
2023-05-14T07:36:27.311Z,18.63
2023-05-14T07:39:31.206Z,18.67
2023-05-14T07:42:36.989Z,19.03
2023-05-14T07:45:41.672Z,19.22
2023-05-14T07:48:45.843Z,19.58
2023-05-14T07:51:50.440Z,20.05
2023-05-14T07:54:54.986Z,20.89
2023-05-14T07:57:59.264Z,22.42
2023-05-14T08:01:06.959Z,24.12
2023-05-14T08:04:16.172Z,25.66
2023-05-14T08:07:19.921Z,26.13
2023-05-14T08:10:24.030Z,26.87
2023-05-14T08:13:28.126Z,27.26
2023-05-14T08:16:32.020Z,26.77
2023-05-14T08:19:35.947Z,26.45
2023-05-14T08:22:39.809Z,26.83
2023-05-14T08:25:44.065Z,25.13
2023-05-14T08:28:48.030Z,23.45
2023-05-14T08:31:52.138Z,23.41
2023-05-14T08:34:56.093Z,24.37
2023-05-14T08:38:00.423Z,25.08
2023-05-14T08:41:06.017Z,24.81
2023-05-14T08:44:29.711Z,25.40
2023-05-14T08:47:33.750Z,25.28
2023-05-14T08:50:38.106Z,24.26
2023-05-14T08:53:42.132Z,24.37
2023-05-14T08:56:51.153Z,24.49
2023-05-14T08:59:56.282Z,23.10
2023-05-14T09:03:00.757Z,22.57
2023-05-14T09:06:05.956Z,23.15
2023-05-14T09:09:11.298Z,23.05
2023-05-14T09:12:15.334Z,22.73
2023-05-14T09:15:20.499Z,22.63
2023-05-14T09:18:25.369Z,23.08
2023-05-14T09:21:32.819Z,22.56
2023-05-14T09:24:38.867Z,22.45
2023-05-14T09:27:50.058Z,22.03
2023-05-14T09:30:54.902Z,21.61
2023-05-14T09:34:00.116Z,21.00
2023-05-14T09:37:08.685Z,20.93
2023-05-14T09:40:14.405Z,21.00
2023-05-14T09:43:18.539Z,20.84
2023-05-14T09:46:23.606Z,20.77
2023-05-14T09:49:28.319Z,20.69
2023-05-14T09:52:32.310Z,20.71
2023-05-14T09:55:38.175Z,20.60
2023-05-14T09:58:42.448Z,20.36
2023-05-14T10:01:46.742Z,20.20
2023-05-14T10:04:54.712Z,20.51
2023-05-14T10:08:00.008Z,20.64
2023-05-14T10:11:08.162Z,20.97
2023-05-14T10:14:28.318Z,20.92
2023-05-14T10:17:34.802Z,20.40
2023-05-14T10:20:41.213Z,20.41
2023-05-14T10:23:46.047Z,20.21
2023-05-14T10:26:50.151Z,20.20
2023-05-14T10:29:55.733Z,19.82
2023-05-14T10:33:11.604Z,20.00
2023-05-14T10:36:16.009Z,20.33
2023-05-14T10:39:20.057Z,20.45
2023-05-14T10:42:43.586Z,20.38
2023-05-14T10:45:48.122Z,20.21
2023-05-14T10:48:52.454Z,20.15
2023-05-14T10:51:57.160Z,20.08
2023-05-14T10:55:03.799Z,20.08
2023-05-14T10:58:09.868Z,20.30
2023-05-14T11:01:14.291Z,20.47
2023-05-14T11:04:19.313Z,20.34
2023-05-14T11:07:35.232Z,20.48
2023-05-14T11:10:39.416Z,20.47
2023-05-14T11:13:44.643Z,20.39
2023-05-14T11:16:50.036Z,20.40
2023-05-14T11:19:54.404Z,20.48
2023-05-14T11:22:58.478Z,20.81
2023-05-14T11:26:02.309Z,21.20
2023-05-14T11:29:06.442Z,21.24
2023-05-14T11:32:11.119Z,21.51
2023-05-14T11:35:16.086Z,21.41
2023-05-14T11:38:21.160Z,21.31
2023-05-14T11:41:26.232Z,21.40
2023-05-14T11:44:31.340Z,21.07
2023-05-14T11:47:44.513Z,20.70
2023-05-14T11:50:51.013Z,20.25
2023-05-14T11:53:54.788Z,20.15
2023-05-14T11:57:01.919Z,20.16
2023-05-14T12:00:09.097Z,20.11
2023-05-14T12:03:13.095Z,20.04
2023-05-14T12:06:18.399Z,19.92
2023-05-14T12:09:23.046Z,19.79
2023-05-14T12:12:27.269Z,19.89
2023-05-14T12:15:31.355Z,19.75
2023-05-14T12:18:35.579Z,19.56
2023-05-14T12:21:40.687Z,19.42
2023-05-14T12:24:53.801Z,19.24
2023-05-14T12:27:57.774Z,19.24
2023-05-14T12:31:01.801Z,19.22
2023-05-14T12:34:07.156Z,19.14
2023-05-14T12:37:11.405Z,19.26
2023-05-14T12:40:15.479Z,19.42
2023-05-14T12:43:19.813Z,19.56
2023-05-14T12:46:27.355Z,19.74
2023-05-14T12:49:31.527Z,19.73
2023-05-14T12:52:39.381Z,19.67
2023-05-14T12:55:43.944Z,19.68
2023-05-14T12:58:48.208Z,19.81
2023-05-14T13:01:52.198Z,20.02
2023-05-14T13:04:56.307Z,19.92
2023-05-14T13:08:03.544Z,20.03
2023-05-14T13:11:08.237Z,20.15
2023-05-14T13:14:12.211Z,20.12
2023-05-14T13:17:16.041Z,20.08
2023-05-14T13:20:20.160Z,19.85
2023-05-14T13:23:24.329Z,19.91
2023-05-14T13:26:28.773Z,19.87
2023-05-14T13:29:32.783Z,19.79
2023-05-14T13:32:36.658Z,19.64
2023-05-14T13:35:40.622Z,19.61
2023-05-14T13:38:46.066Z,19.46
2023-05-14T13:41:51.516Z,19.49
2023-05-14T13:44:56.307Z,19.42
2023-05-14T13:48:00.196Z,19.53
2023-05-14T13:51:04.245Z,19.54
2023-05-14T13:54:08.100Z,19.49
2023-05-14T13:57:12.972Z,19.40
2023-05-14T14:00:17.765Z,19.42
2023-05-14T14:03:22.355Z,19.48
2023-05-14T14:06:27.471Z,19.47
2023-05-14T14:09:35.047Z,19.49
2023-05-14T14:12:38.696Z,19.63
2023-05-14T14:15:43.657Z,19.80
2023-05-14T14:18:48.259Z,19.91
2023-05-14T14:21:52.554Z,19.93
2023-05-14T14:24:56.589Z,19.93
2023-05-14T14:28:01.079Z,20.03
2023-05-14T14:31:05.658Z,20.14
2023-05-14T14:34:09.869Z,19.99
2023-05-14T14:37:13.950Z,20.12
2023-05-14T14:40:17.896Z,20.15
2023-05-14T14:43:22.141Z,20.10
2023-05-14T14:46:26.273Z,20.10
2023-05-14T14:49:31.283Z,20.08
2023-05-14T14:52:36.519Z,19.97
2023-05-14T14:55:40.875Z,19.96
2023-05-14T14:58:45.544Z,19.89
2023-05-14T15:01:49.679Z,19.90
2023-05-14T15:04:54.747Z,19.85
2023-05-14T15:07:58.854Z,19.84
2023-05-14T15:11:02.613Z,19.91
2023-05-14T15:14:06.432Z,19.91
2023-05-14T15:17:10.719Z,19.88
2023-05-14T15:20:15.357Z,19.83
2023-05-14T15:23:19.408Z,19.94
2023-05-14T15:26:23.267Z,19.96
2023-05-14T15:29:28.609Z,19.78
2023-05-14T15:32:33.669Z,19.85
2023-05-14T15:35:37.798Z,19.95
2023-05-14T15:38:42.266Z,19.89
2023-05-14T15:41:46.241Z,19.95
2023-05-14T15:44:49.898Z,19.98
2023-05-14T15:47:54.648Z,19.93
2023-05-14T15:50:59.115Z,19.87
2023-05-14T15:54:03.605Z,19.80
2023-05-14T15:57:07.560Z,19.63
2023-05-14T16:00:12.406Z,19.61
2023-05-14T16:03:17.448Z,19.54
2023-05-14T16:06:21.721Z,19.33
2023-05-14T16:09:26.708Z,19.37
2023-05-14T16:12:30.489Z,19.36
2023-05-14T16:15:34.810Z,19.34
2023-05-14T16:18:40.230Z,19.30
2023-05-14T16:21:44.957Z,19.32
2023-05-14T16:24:48.848Z,19.31
2023-05-14T16:27:52.885Z,19.32
2023-05-14T16:30:56.964Z,19.31
2023-05-14T16:34:01.126Z,19.38
2023-05-14T16:37:05.490Z,19.31
2023-05-14T16:40:11.650Z,19.36
2023-05-14T16:43:15.858Z,19.28
2023-05-14T16:46:20.252Z,19.29
2023-05-14T16:49:24.080Z,19.42
2023-05-14T16:52:28.236Z,19.40
2023-05-14T16:55:32.399Z,19.38
2023-05-14T16:58:36.735Z,19.34
2023-05-14T17:01:41.811Z,19.38
2023-05-14T17:04:46.131Z,19.32
2023-05-14T17:07:50.681Z,19.23
2023-05-14T17:10:54.670Z,19.16
2023-05-14T17:13:58.439Z,19.06
2023-05-14T17:17:02.351Z,19.09
2023-05-14T17:20:06.832Z,19.07
2023-05-14T17:23:10.729Z,19.02
2023-05-14T17:26:14.836Z,18.95
2023-05-14T17:29:18.618Z,18.98
2023-05-14T17:32:22.943Z,18.96
2023-05-14T17:35:27.144Z,18.84
2023-05-14T17:38:31.364Z,18.77
2023-05-14T17:41:35.477Z,18.69
2023-05-14T17:44:39.529Z,18.59
2023-05-14T17:47:43.557Z,18.37
2023-05-14T17:50:47.838Z,18.29
2023-05-14T17:53:52.232Z,18.24
2023-05-14T17:56:56.503Z,18.18
2023-05-14T18:00:00.828Z,18.07
2023-05-14T18:03:05.138Z,17.95
2023-05-14T18:06:09.306Z,17.82
2023-05-14T18:09:13.560Z,17.85
2023-05-14T18:12:17.742Z,17.85
2023-05-14T18:15:25.004Z,17.72
2023-05-14T18:18:28.873Z,17.67
2023-05-14T18:21:32.892Z,17.63
2023-05-14T18:24:37.125Z,17.60
2023-05-14T18:27:46.986Z,17.58
2023-05-14T18:30:51.019Z,17.60
2023-05-14T18:33:55.276Z,17.61
2023-05-14T18:36:59.248Z,17.50
2023-05-14T18:40:05.004Z,17.43
2023-05-14T18:43:09.037Z,17.37
2023-05-14T18:46:13.608Z,17.43
2023-05-14T18:49:17.706Z,17.49
2023-05-14T18:52:22.800Z,17.40
2023-05-14T18:55:27.358Z,17.31
2023-05-14T18:58:32.066Z,17.27
2023-05-14T19:01:36.377Z,17.24
2023-05-14T19:04:51.026Z,17.21
2023-05-14T19:07:56.933Z,17.18
2023-05-14T19:11:01.007Z,17.13
2023-05-14T19:14:04.658Z,17.11
2023-05-14T19:17:08.550Z,17.10
2023-05-14T19:20:12.674Z,17.10
2023-05-14T19:23:16.870Z,17.12
2023-05-14T19:26:21.630Z,17.14
2023-05-14T19:29:25.520Z,17.10
2023-05-14T19:32:29.644Z,17.06
2023-05-14T19:35:34.349Z,17.06
2023-05-14T19:38:39.603Z,17.05
2023-05-14T19:41:44.066Z,17.05
2023-05-14T19:44:48.175Z,16.99
2023-05-14T19:47:51.920Z,16.93
2023-05-14T19:50:56.284Z,16.94
2023-05-14T19:54:00.492Z,16.93
2023-05-14T19:57:05.309Z,16.96
2023-05-14T20:00:10.477Z,16.89
2023-05-14T20:03:14.820Z,16.85
2023-05-14T20:06:18.937Z,16.81
2023-05-14T20:09:22.861Z,16.78
2023-05-14T20:12:29.997Z,16.71
2023-05-14T20:15:34.715Z,16.69
2023-05-14T20:18:38.532Z,16.69
2023-05-14T20:21:42.595Z,16.68
2023-05-14T20:24:46.459Z,16.60
2023-05-14T20:27:52.473Z,16.56
2023-05-14T20:30:58.884Z,16.51
2023-05-14T20:34:03.573Z,16.42
2023-05-14T20:37:08.063Z,16.36
2023-05-14T20:40:12.661Z,16.31
2023-05-14T20:43:16.820Z,16.25
2023-05-14T20:46:21.248Z,16.19
2023-05-14T20:49:25.467Z,16.15
2023-05-14T20:52:29.599Z,16.10
2023-05-14T20:55:33.834Z,16.08
2023-05-14T20:58:37.810Z,16.12
2023-05-14T21:01:42.680Z,16.08
2023-05-14T21:04:47.110Z,15.96
2023-05-14T21:07:51.533Z,15.91
2023-05-14T21:10:55.626Z,15.85
2023-05-14T21:13:59.590Z,15.81
2023-05-14T21:17:03.806Z,15.81
2023-05-14T21:20:08.613Z,15.77
2023-05-14T21:23:13.028Z,15.67
2023-05-14T21:26:17.178Z,15.62
2023-05-14T21:29:21.267Z,15.59
2023-05-14T21:32:25.623Z,15.54
2023-05-14T21:35:29.726Z,15.48
2023-05-14T21:38:34.414Z,15.41
2023-05-14T21:41:38.534Z,15.31
2023-05-14T21:44:42.782Z,15.27
2023-05-14T21:47:47.250Z,15.25
2023-05-14T21:50:51.827Z,15.21
2023-05-14T21:53:55.905Z,15.16
2023-05-14T21:56:59.716Z,15.08
2023-05-14T22:00:07.920Z,15.04
2023-05-14T22:03:11.963Z,14.94
2023-05-14T22:06:16.708Z,14.88
2023-05-14T22:09:21.036Z,14.81
2023-05-14T22:12:24.845Z,14.82
2023-05-14T22:15:28.967Z,14.94
2023-05-14T22:18:34.197Z,14.90
2023-05-14T22:21:38.200Z,14.89
2023-05-14T22:24:42.478Z,14.88
2023-05-14T22:27:46.272Z,14.93
2023-05-14T22:30:50.181Z,14.96
2023-05-14T22:33:54.340Z,14.93
2023-05-14T22:36:58.403Z,14.91
2023-05-14T22:40:05.063Z,14.84
2023-05-14T22:43:08.845Z,14.79
2023-05-14T22:46:12.838Z,14.73
2023-05-14T22:49:17.125Z,14.66
2023-05-14T22:52:21.597Z,14.67
2023-05-14T22:55:25.898Z,14.71
2023-05-14T22:58:30.367Z,14.66
2023-05-14T23:01:34.020Z,14.61
2023-05-14T23:04:37.770Z,14.53
2023-05-14T23:07:41.727Z,14.51
2023-05-14T23:10:45.795Z,14.43
2023-05-14T23:13:50.470Z,14.39
2023-05-14T23:16:54.686Z,14.33
2023-05-14T23:19:58.944Z,14.31
2023-05-14T23:23:02.847Z,14.27
2023-05-14T23:26:07.237Z,14.19
2023-05-14T23:29:11.410Z,14.16
2023-05-14T23:32:15.620Z,14.10
2023-05-14T23:35:19.502Z,14.08
2023-05-14T23:38:23.968Z,14.03
2023-05-14T23:41:27.998Z,13.98
2023-05-14T23:44:31.971Z,13.94
2023-05-14T23:47:36.149Z,13.86
2023-05-14T23:50:40.441Z,13.85
2023-05-14T23:53:44.389Z,13.87
2023-05-14T23:56:48.594Z,13.89
2023-05-14T23:59:52.860Z,13.90
